sensor_id;sensor_type;location;lat;lon;timestamp;pressure;altitude;pressure_sealevel;temperature;humidity
51468;BME280;37545;45.302;-122.946;2023-12-20T03:57:45;99991.78;;;10.72;100.00
51468;BME280;37545;45.302;-122.946;2023-12-20T04:05:27;100003.84;;;10.69;100.00
51468;BME280;37545;45.302;-122.946;2023-12-20T04:07:56;100005.59;;;10.71;100.00
51468;BME280;37545;45.302;-122.946;2023-12-20T04:10:29;99999.47;;;10.67;100.00
51468;BME280;37545;45.302;-122.946;2023-12-20T04:13:07;99999.44;;;10.64;100.00
51468;BME280;37545;45.302;-122.946;2023-12-20T04:15:36;100010.66;;;10.64;100.00
51468;BME280;37545;45.302;-122.946;2023-12-20T04:18:06;100005.44;;;10.61;100.00
51468;BME280;37545;45.302;-122.946;2023-12-20T04:20:37;100002.72;;;10.54;100.00
51468;BME280;37545;45.302;-122.946;2023-12-20T04:23:14;100004.41;;;10.53;100.00
51468;BME280;37545;45.302;-122.946;2023-12-20T05:12:23;100035.13;;;9.92;100.00
51468;BME280;37545;45.302;-122.946;2023-12-20T05:14:53;100043.78;;;9.94;100.00
51468;BME280;37545;45.302;-122.946;2023-12-20T05:17:30;100038.59;;;9.93;100.00
51468;BME280;37545;45.302;-122.946;2023-12-20T05:19:59;100048.91;;;9.93;100.00
51468;BME280;37545;45.302;-122.946;2023-12-20T05:22:28;100057.59;;;9.95;100.00
51468;BME280;37545;45.302;-122.946;2023-12-20T05:32:59;100067.78;;;9.89;100.00
51468;BME280;37545;45.302;-122.946;2023-12-20T05:35:52;100072.03;;;9.85;100.00
51468;BME280;37545;45.302;-122.946;2023-12-20T05:59:05;100075.97;;;9.69;100.00
51468;BME280;37545;45.302;-122.946;2023-12-20T06:01:35;100081.16;;;9.69;100.00
51468;BME280;37545;45.302;-122.946;2023-12-20T06:04:04;100077.66;;;9.67;100.00
51468;BME280;37545;45.302;-122.946;2023-12-20T06:06:33;100072.56;;;9.70;100.00
51468;BME280;37545;45.302;-122.946;2023-12-20T06:09:03;100078.59;;;9.71;100.00
51468;BME280;37545;45.302;-122.946;2023-12-20T07:12:47;100157.28;;;9.14;100.00
51468;BME280;37545;45.302;-122.946;2023-12-20T07:15:20;100148.72;;;9.15;100.00
51468;BME280;37545;45.302;-122.946;2023-12-20T07:17:51;100141.78;;;9.14;100.00
51468;BME280;37545;45.302;-122.946;2023-12-20T07:20:21;100136.59;;;9.12;100.00
51468;BME280;37545;45.302;-122.946;2023-12-20T07:22:50;100144.25;;;9.09;100.00
51468;BME280;37545;45.302;-122.946;2023-12-20T07:25:23;100162.38;;;9.11;100.00
51468;BME280;37545;45.302;-122.946;2023-12-20T07:28:10;100154.63;;;9.11;100.00
51468;BME280;37545;45.302;-122.946;2023-12-20T07:56:27;100187.69;;;8.92;100.00
51468;BME280;37545;45.302;-122.946;2023-12-20T07:58:56;100190.31;;;8.94;100.00
51468;BME280;37545;45.302;-122.946;2023-12-20T08:01:34;100189.59;;;8.99;100.00
51468;BME280;37545;45.302;-122.946;2023-12-20T08:22:15;100206.53;;;8.90;100.00
51468;BME280;37545;45.302;-122.946;2023-12-20T08:24:44;100203.91;;;8.88;100.00
51468;BME280;37545;45.302;-122.946;2023-12-20T08:27:14;100195.31;;;8.88;100.00
51468;BME280;37545;45.302;-122.946;2023-12-20T08:29:46;100213.41;;;8.89;100.00
51468;BME280;37545;45.302;-122.946;2023-12-20T08:32:22;100215.75;;;8.81;100.00
51468;BME280;37545;45.302;-122.946;2023-12-20T08:34:53;100214.56;;;8.69;100.00
51468;BME280;37545;45.302;-122.946;2023-12-20T08:37:27;100222.31;;;8.69;100.00
51468;BME280;37545;45.302;-122.946;2023-12-20T08:40:02;100227.47;;;8.70;100.00
51468;BME280;37545;45.302;-122.946;2023-12-20T08:42:31;100214.59;;;8.70;100.00
51468;BME280;37545;45.302;-122.946;2023-12-20T09:03:11;100219.47;;;8.59;100.00
51468;BME280;37545;45.302;-122.946;2023-12-20T09:05:40;100215.16;;;8.60;100.00
51468;BME280;37545;45.302;-122.946;2023-12-20T09:08:09;100226.41;;;8.62;100.00
51468;BME280;37545;45.302;-122.946;2023-12-20T09:10:42;100223.78;;;8.60;100.00
51468;BME280;37545;45.302;-122.946;2023-12-20T09:13:11;100217.75;;;8.60;100.00
51468;BME280;37545;45.302;-122.946;2023-12-20T09:15:40;100222.97;;;8.63;100.00
51468;BME280;37545;45.302;-122.946;2023-12-20T09:18:11;100219.63;;;8.66;100.00
51468;BME280;37545;45.302;-122.946;2023-12-20T09:20:40;100225.63;;;8.65;100.00
51468;BME280;37545;45.302;-122.946;2023-12-20T09:23:09;100231.63;;;8.64;100.00
51468;BME280;37545;45.302;-122.946;2023-12-20T09:25:39;100225.34;;;8.55;100.00
51468;BME280;37545;45.302;-122.946;2023-12-20T09:28:08;100230.38;;;8.51;100.00
51468;BME280;37545;45.302;-122.946;2023-12-20T09:30:39;100229.31;;;8.44;100.00
51468;BME280;37545;45.302;-122.946;2023-12-20T09:33:11;100230.19;;;8.45;100.00
51468;BME280;37545;45.302;-122.946;2023-12-20T09:35:40;100236.31;;;8.48;100.00
51468;BME280;37545;45.302;-122.946;2023-12-20T09:38:09;100244.25;;;8.54;100.00
51468;BME280;37545;45.302;-122.946;2023-12-20T09:40:44;100245.13;;;8.55;100.00
51468;BME280;37545;45.302;-122.946;2023-12-20T09:43:15;100244.25;;;8.54;100.00
51468;BME280;37545;45.302;-122.946;2023-12-20T10:21:30;100293.00;;;7.94;100.00
51468;BME280;37545;45.302;-122.946;2023-12-20T10:45:51;100314.41;;;7.91;100.00
51468;BME280;37545;45.302;-122.946;2023-12-20T10:48:21;100326.56;;;7.95;100.00
51468;BME280;37545;45.302;-122.946;2023-12-20T10:50:56;100337.81;;;7.99;100.00
51468;BME280;37545;45.302;-122.946;2023-12-20T10:53:30;100343.09;;;8.02;100.00
51468;BME280;37545;45.302;-122.946;2023-12-20T10:56:00;100352.50;;;8.02;100.00
51468;BME280;37545;45.302;-122.946;2023-12-20T10:58:33;100349.06;;;8.01;100.00
51468;BME280;37545;45.302;-122.946;2023-12-20T11:42:33;100358.44;;;7.99;100.00
51468;BME280;37545;45.302;-122.946;2023-12-20T11:45:03;100366.22;;;8.01;100.00
51468;BME280;37545;45.302;-122.946;2023-12-20T11:47:35;100359.38;;;8.01;100.00
51468;BME280;37545;45.302;-122.946;2023-12-20T12:21:21;100371.75;;;7.86;100.00
51468;BME280;37545;45.302;-122.946;2023-12-20T12:23:51;100388.72;;;7.81;100.00
51468;BME280;37545;45.302;-122.946;2023-12-20T12:26:20;100388.53;;;7.74;100.00
51468;BME280;37545;45.302;-122.946;2023-12-20T12:28:54;100393.38;;;7.65;100.00
51468;BME280;37545;45.302;-122.946;2023-12-20T12:31:26;100408.69;;;7.62;100.00
51468;BME280;37545;45.302;-122.946;2023-12-20T12:33:55;100403.44;;;7.59;100.00
51468;BME280;37545;45.302;-122.946;2023-12-20T12:36:26;100406.88;;;7.60;100.00
51468;BME280;37545;45.302;-122.946;2023-12-20T12:38:57;100420.84;;;7.66;100.00
51468;BME280;37545;45.302;-122.946;2023-12-20T12:41:30;100410.56;;;7.66;100.00
51468;BME280;37545;45.302;-122.946;2023-12-20T12:43:59;100423.53;;;7.69;100.00
51468;BME280;37545;45.302;-122.946;2023-12-20T12:46:28;100429.59;;;7.71;100.00
51468;BME280;37545;45.302;-122.946;2023-12-20T12:49:10;100430.34;;;7.67;100.00
51468;BME280;37545;45.302;-122.946;2023-12-20T12:51:41;100441.34;;;7.63;100.00
51468;BME280;37545;45.302;-122.946;2023-12-20T12:56:50;100457.34;;;7.54;100.00
51468;BME280;37545;45.302;-122.946;2023-12-20T12:59:19;100462.47;;;7.54;100.00
51468;BME280;37545;45.302;-122.946;2023-12-20T13:01:48;100462.47;;;7.54;100.00
51468;BME280;37545;45.302;-122.946;2023-12-20T13:04:25;100464.88;;;7.50;100.00
51468;BME280;37545;45.302;-122.946;2023-12-20T13:06:57;100460.28;;;7.41;100.00
51468;BME280;37545;45.302;-122.946;2023-12-20T13:09:26;100472.38;;;7.44;100.00
51468;BME280;37545;45.302;-122.946;2023-12-20T13:11:58;100470.66;;;7.44;100.00
51468;BME280;37545;45.302;-122.946;2023-12-20T13:14:34;100466.44;;;7.45;100.00
51468;BME280;37545;45.302;-122.946;2023-12-20T13:17:04;100464.47;;;7.39;100.00
51468;BME280;37545;45.302;-122.946;2023-12-20T13:19:33;100490.34;;;7.42;100.00
51468;BME280;37545;45.302;-122.946;2023-12-20T13:22:12;100496.19;;;7.38;100.00
51468;BME280;37545;45.302;-122.946;2023-12-20T13:24:41;100488.22;;;7.32;100.00
51468;BME280;37545;45.302;-122.946;2023-12-20T13:27:10;100489.84;;;7.28;100.00
51468;BME280;37545;45.302;-122.946;2023-12-20T13:29:42;100488.81;;;7.25;100.00
51468;BME280;37545;45.302;-122.946;2023-12-20T13:32:18;100495.88;;;7.30;100.00
51468;BME280;37545;45.302;-122.946;2023-12-20T13:34:47;100487.47;;;7.34;100.00
51468;BME280;37545;45.302;-122.946;2023-12-20T13:37:18;100475.44;;;7.33;100.00
51468;BME280;37545;45.302;-122.946;2023-12-20T13:40:01;100494.44;;;7.37;100.00
51468;BME280;37545;45.302;-122.946;2023-12-20T13:55:21;100500.00;;;7.25;100.00
51468;BME280;37545;45.302;-122.946;2023-12-20T13:57:51;100506.16;;;7.29;100.00
51468;BME280;37545;45.302;-122.946;2023-12-20T14:00:23;100503.41;;;7.24;100.00
51468;BME280;37545;45.302;-122.946;2023-12-20T14:02:55;100506.78;;;7.23;100.00
51468;BME280;37545;45.302;-122.946;2023-12-20T14:05:25;100513.78;;;7.27;100.00
51468;BME280;37545;45.302;-122.946;2023-12-20T14:07:54;100516.94;;;7.20;100.00
51468;BME280;37545;45.302;-122.946;2023-12-20T14:18:19;100517.72;;;7.18;100.00
51468;BME280;37545;45.302;-122.946;2023-12-20T14:20:49;100518.59;;;7.18;100.00
51468;BME280;37545;45.302;-122.946;2023-12-20T14:23:18;100525.63;;;7.22;100.00
51468;BME280;37545;45.302;-122.946;2023-12-20T14:25:57;100517.19;;;7.26;100.00
51468;BME280;37545;45.302;-122.946;2023-12-20T14:28:26;100513.03;;;7.30;100.00
51468;BME280;37545;45.302;-122.946;2023-12-20T14:30:55;100514.63;;;7.26;100.00
51468;BME280;37545;45.302;-122.946;2023-12-20T14:33:29;100508.41;;;7.21;100.00
51468;BME280;37545;45.302;-122.946;2023-12-20T14:36:06;100509.13;;;7.17;100.00
51468;BME280;37545;45.302;-122.946;2023-12-20T14:38:35;100528.00;;;7.18;100.00
51468;BME280;37545;45.302;-122.946;2023-12-20T14:41:05;100527.81;;;7.13;100.00
51468;BME280;37545;45.302;-122.946;2023-12-20T14:43:46;100544.13;;;7.13;100.00
51468;BME280;37545;45.302;-122.946;2023-12-20T14:46:15;100555.06;;;7.08;100.00
51468;BME280;37545;45.302;-122.946;2023-12-20T14:49:00;100553.75;;;6.97;100.00
51468;BME280;37545;45.302;-122.946;2023-12-20T14:51:30;100567.56;;;6.99;100.00
51468;BME280;37545;45.302;-122.946;2023-12-20T14:53:59;100569.22;;;6.98;100.00
51468;BME280;37545;45.302;-122.946;2023-12-20T14:56:38;100562.41;;;6.99;100.00
51468;BME280;37545;45.302;-122.946;2023-12-20T14:59:07;100567.41;;;6.96;100.00
51468;BME280;37545;45.302;-122.946;2023-12-20T15:01:37;100578.34;;;6.90;100.00
51468;BME280;37545;45.302;-122.946;2023-12-20T15:04:27;100597.78;;;6.83;100.00
51468;BME280;37545;45.302;-122.946;2023-12-20T15:06:56;100608.06;;;6.83;100.00
51468;BME280;37545;45.302;-122.946;2023-12-20T15:09:44;100603.81;;;6.84;100.00
51468;BME280;37545;45.302;-122.946;2023-12-20T15:12:14;100604.63;;;6.83;100.00
51468;BME280;37545;45.302;-122.946;2023-12-20T15:22:51;100592.28;;;6.55;100.00
51468;BME280;37545;45.302;-122.946;2023-12-20T15:25:21;100590.88;;;6.42;100.00
51468;BME280;37545;45.302;-122.946;2023-12-20T15:27:59;100592.34;;;6.37;100.00
51468;BME280;37545;45.302;-122.946;2023-12-20T15:30:29;100595.94;;;6.40;100.00
51468;BME280;37545;45.302;-122.946;2023-12-20T16:19:26;100633.53;;;6.19;100.00
51468;BME280;37545;45.302;-122.946;2023-12-20T16:40:14;100643.69;;;6.74;100.00
51468;BME280;37545;45.302;-122.946;2023-12-20T16:42:46;100637.13;;;6.81;100.00
51468;BME280;37545;45.302;-122.946;2023-12-20T16:55:38;100662.09;;;7.04;100.00
